AKO weather

Colorado Plains Regional Airport
Akron, Colorado, United States

Public forecast

Using degrees Fahrenheit for public forecast. Weather courtesy of forecast.io.

METAR (pilot weather report)

Retrieved 2019/05/19 22:53 UTC (60 minutes ago):

KAKO 192253Z AUTO 09014G19KT 10SM CLR 13/02 A2991 RMK AO2 SLP118 T01280022 TSNO

TAF (pilot weather forecast)

Closest forecast is Sidney Municipal-Lloyd W Carr Field, 56.6 nm (104.9 km) N. Retrieved 2019/05/19 18:48 UTC (5 hours ago):

TAF KSNY 191742Z 1918/2018 33014KT P6SM SCT040 SCT100 FM192300 08014KT P6SM BKN120 FM200800 10016KT P6SM BKN020 FM201200 10016KT 6SM -SHRA BR OVC008 FM201500 10017G27KT 4SM -RA BR OVC007